Time;durP1;ratioP1;P1;durP2;ratioP2;P2;SDS_P1;SDS_P2;PMS_P1;PMS_P2;Temp;Humidity;BMP_temperature;BMP_pressure;BME280_temperature;BME280_humidity;BME280_pressure;Samples;Min_cycle;Max_cycle;Signal;HPM_P1;HPM_P2
2022/08/10 00:01:45;;;;;;;5.72;1.67;;;21.50;82.80;;;;;;5141952;27;20399;-75
2022/08/10 00:04:10;;;;;;;5.97;2.00;;;21.50;82.80;;;;;;5142392;27;20491;-74
2022/08/10 00:06:36;;;;;;;6.72;2.00;;;21.50;82.80;;;;;;5127029;27;20034;-74
2022/08/10 00:09:02;;;;;;;3.83;1.75;;;21.50;82.90;;;;;;5126916;27;20034;-74
2022/08/10 00:11:28;;;;;;;4.20;1.80;;;21.50;83.10;;;;;;5125119;27;20087;-75
2022/08/10 00:13:53;;;;;;;4.90;2.08;;;21.40;82.80;;;;;;5124142;27;20027;-75
2022/08/10 00:16:19;;;;;;;5.18;2.20;;;21.40;82.90;;;;;;5126374;27;20022;-75
2022/08/10 00:18:44;;;;;;;5.18;1.92;;;21.40;83.60;;;;;;5142043;27;20680;-74
2022/08/10 00:21:10;;;;;;;4.68;1.67;;;21.50;83.20;;;;;;5142645;27;20023;-74
2022/08/10 00:23:37;;;;;;;4.28;1.90;;;21.50;83.30;;;;;;5141392;27;20038;-75
2022/08/10 00:26:04;;;;;;;4.68;2.10;;;21.50;83.20;;;;;;5142433;27;20578;-75
2022/08/10 00:28:29;;;;;;;5.65;2.08;;;21.50;83.20;;;;;;5142564;27;20502;-75
2022/08/10 00:30:55;;;;;;;3.45;1.83;;;21.50;83.60;;;;;;5126262;27;20031;-75
2022/08/10 00:33:21;;;;;;;3.45;1.65;;;21.50;83.00;;;;;;5135121;27;20026;-76
2022/08/10 00:35:47;;;;;;;5.72;2.03;;;21.50;83.00;;;;;;5110686;27;20491;-76
2022/08/10 00:38:13;;;;;;;5.18;1.98;;;21.50;82.80;;;;;;5126320;27;20023;-75
2022/08/10 00:40:38;;;;;;;4.63;1.75;;;21.50;82.90;;;;;;5126103;27;20282;-73
2022/08/10 00:43:05;;;;;;;4.15;1.90;;;21.50;82.90;;;;;;5142140;27;20034;-74
2022/08/10 00:45:31;;;;;;;4.40;1.80;;;21.50;83.10;;;;;;5126297;27;20081;-74
2022/08/10 00:47:56;;;;;;;3.90;1.80;;;21.40;83.00;;;;;;5126600;27;20030;-74
2022/08/10 00:50:22;;;;;;;5.13;1.90;;;21.40;83.10;;;;;;5126041;28;20063;-75
2022/08/10 00:52:47;;;;;;;5.35;1.77;;;21.40;83.30;;;;;;5125713;27;20482;-75
2022/08/10 00:55:13;;;;;;;4.20;1.85;;;21.40;83.30;;;;;;5125025;28;20752;-73
2022/08/10 00:57:40;;;;;;;4.43;1.77;;;21.40;83.40;;;;;;5123503;28;20031;-75
2022/08/10 01:00:08;;;;;;;4.60;1.70;;;21.30;83.40;;;;;;5123531;28;20028;-73
2022/08/10 01:02:33;;;;;;;4.28;1.90;;;21.40;83.50;;;;;;5124502;27;20384;-73
2022/08/10 01:05:03;;;;;;;3.17;1.60;;;21.40;83.60;;;;;;5122981;27;20083;-74
2022/08/10 01:08:03;;;;;;;3.03;1.67;;;21.40;83.60;;;;;;5124996;27;20035;-73
2022/08/10 01:10:48;;;;;;;4.53;1.80;;;21.40;83.60;;;;;;5124878;27;20194;-74
2022/08/10 01:13:25;;;;;;;4.97;1.83;;;21.40;83.50;;;;;;5124466;27;20031;-76
2022/08/10 01:16:08;;;;;;;3.60;1.80;;;21.40;83.40;;;;;;5126062;27;20011;-75
2022/08/10 01:18:55;;;;;;;4.97;1.80;;;21.40;83.30;;;;;;5124650;28;20030;-75
2022/08/10 01:21:39;;;;;;;3.75;1.83;;;21.40;83.20;;;;;;5125200;28;20436;-75
2022/08/10 01:24:15;;;;;;;2.67;1.60;;;21.50;83.20;;;;;;5125916;27;20080;-75
2022/08/10 01:26:47;;;;;;;3.45;1.90;;;21.50;83.20;;;;;;5125967;28;20681;-75
2022/08/10 01:29:12;;;;;;;;;;;21.40;83.20;;;;;;5126787;28;20023;-75
2022/08/10 01:31:43;;;;;;;3.05;1.83;;;21.40;83.20;;;;;;5124511;28;19918;-76
2022/08/10 01:34:21;;;;;;;3.07;1.67;;;21.40;83.50;;;;;;5114642;27;20019;-76
2022/08/10 01:36:54;;;;;;;6.28;2.28;;;21.40;83.60;;;;;;5143066;27;20038;-76
2022/08/10 01:39:27;;;;;;;4.72;1.98;;;21.40;83.70;;;;;;5118616;27;20023;-76
2022/08/10 01:42:01;;;;;;;3.92;1.98;;;21.40;83.70;;;;;;5129422;27;20019;-75
2022/08/10 01:44:38;;;;;;;4.47;2.08;;;21.40;83.80;;;;;;5136356;27;20031;-76
2022/08/10 01:50:12;;;;;;;2.95;1.65;;;21.30;83.70;;;;;;5133896;27;20057;-75
2022/08/10 01:52:41;;;;;;;2.80;1.70;;;21.30;83.80;;;;;;5128982;27;20064;-75
2022/08/10 01:55:08;;;;;;;4.40;1.70;;;21.30;83.80;;;;;;5127727;27;20027;-75
2022/08/10 01:57:36;;;;;;;4.70;1.90;;;21.30;83.60;;;;;;5140580;27;20118;-75
2022/08/10 02:00:02;;;;;;;3.40;1.60;;;21.40;83.70;;;;;;5133174;27;20094;-76
2022/08/10 02:02:30;;;;;;;4.95;2.13;;;21.40;83.60;;;;;;5136559;27;20712;-75
2022/08/10 02:04:58;;;;;;;3.53;1.70;;;21.40;83.50;;;;;;5136471;27;20026;-75
2022/08/10 02:07:27;;;;;;;3.42;1.70;;;21.40;83.40;;;;;;5123185;27;20054;-74
2022/08/10 02:09:56;;;;;;;3.63;1.80;;;21.40;83.30;;;;;;5142869;27;20019;-76
2022/08/10 02:12:27;;;;;;;5.53;1.85;;;21.40;83.80;;;;;;5137026;27;20076;-76
2022/08/10 02:14:57;;;;;;;5.03;1.70;;;21.40;83.30;;;;;;5130365;27;20107;-75
2022/08/10 02:17:26;;;;;;;3.83;1.70;;;21.40;83.30;;;;;;5137231;27;20095;-76
2022/08/10 02:19:55;;;;;;;3.60;1.75;;;21.40;83.30;;;;;;5113057;27;20560;-74
2022/08/10 02:22:22;;;;;;;3.30;1.80;;;21.40;83.50;;;;;;5120245;27;20040;-75
2022/08/10 02:24:49;;;;;;;4.00;1.92;;;21.40;83.70;;;;;;5134659;27;20098;-75
2022/08/10 02:27:15;;;;;;;3.38;1.90;;;21.40;83.80;;;;;;5147498;27;20382;-74
2022/08/10 02:29:44;;;;;;;4.40;1.80;;;21.30;83.70;;;;;;5131398;27;20031;-75
2022/08/10 02:32:11;;;;;;;3.83;1.83;;;21.30;83.80;;;;;;5108066;28;20039;-74
2022/08/10 02:34:38;;;;;;;3.88;1.73;;;21.30;83.90;;;;;;5107835;27;20088;-75
2022/08/10 02:37:06;;;;;;;4.00;2.00;;;21.30;83.90;;;;;;5108271;28;20031;-76
2022/08/10 02:39:35;;;;;;;3.60;1.80;;;21.30;83.90;;;;;;5114672;27;20031;-76
2022/08/10 02:42:07;;;;;;;2.92;1.70;;;21.30;83.90;;;;;;5124597;27;20431;-74
2022/08/10 02:44:37;;;;;;;3.38;1.73;;;21.30;84.00;;;;;;5128407;27;20031;-75
2022/08/10 02:47:11;;;;;;;4.47;1.80;;;21.30;83.80;;;;;;5127222;27;20441;-74
2022/08/10 02:50:09;;;;;;;2.58;1.55;;;21.30;83.70;;;;;;5128499;27;20026;-76
2022/08/10 02:52:44;;;;;;;2.90;1.75;;;21.40;83.70;;;;;;5127870;27;20031;-74
2022/08/10 02:55:19;;;;;;;2.47;1.60;;;21.40;83.60;;;;;;5127472;27;20024;-75
2022/08/10 02:57:51;;;;;;;3.03;1.70;;;21.40;83.50;;;;;;5133677;27;20382;-74
2022/08/10 03:00:17;;;;;;;2.95;1.60;;;21.40;83.50;;;;;;5129091;27;20019;-75
2022/08/10 03:02:48;;;;;;;3.10;1.67;;;21.40;83.40;;;;;;5133760;27;20038;-75
2022/08/10 03:05:15;;;;;;;;;;;21.30;83.30;;;;;;5139458;27;20113;-74
2022/08/10 03:07:50;;;;;;;4.20;1.85;;;21.30;83.50;;;;;;5126397;27;20653;-75
2022/08/10 03:10:27;;;;;;;4.30;1.75;;;21.30;83.50;;;;;;5145709;27;20214;-76
2022/08/10 03:13:03;;;;;;;3.75;1.90;;;21.30;83.80;;;;;;5145807;27;20658;-74
2022/08/10 03:15:31;;;;;;;2.25;1.70;;;21.30;83.90;;;;;;5127930;27;20019;-76
2022/08/10 03:17:58;;;;;;;3.13;1.77;;;21.30;83.90;;;;;;5131210;27;20050;-76
2022/08/10 03:20:44;;;;;;;3.67;1.80;;;21.30;83.90;;;;;;5136337;27;20498;-75
2022/08/10 03:23:15;;;;;;;3.08;1.70;;;21.30;84.00;;;;;;5132139;27;20043;-74
2022/08/10 03:25:43;;;;;;;3.55;1.88;;;21.30;84.00;;;;;;5136459;27;20014;-74
2022/08/10 03:28:09;;;;;;;3.80;1.90;;;21.30;84.00;;;;;;5128778;27;20027;-75
2022/08/10 03:30:36;;;;;;;3.08;1.85;;;21.30;84.10;;;;;;5134145;27;20399;-75
2022/08/10 03:33:04;;;;;;;3.35;1.70;;;21.30;84.10;;;;;;5138296;27;20103;-74
2022/08/10 03:35:29;;;;;;;3.35;2.10;;;21.30;83.90;;;;;;5118227;27;20163;-75
2022/08/10 03:37:55;;;;;;;2.88;1.58;;;21.30;83.80;;;;;;5126231;27;20114;-74
2022/08/10 03:40:21;;;;;;;3.25;1.80;;;21.30;83.70;;;;;;5128820;27;20082;-76
2022/08/10 03:42:49;;;;;;;2.35;1.60;;;21.30;83.60;;;;;;5128235;27;20042;-74
2022/08/10 03:45:15;;;;;;;3.35;1.85;;;21.40;83.70;;;;;;5143198;27;20027;-75
2022/08/10 03:47:42;;;;;;;2.90;1.70;;;21.40;83.60;;;;;;5128967;27;20030;-74
2022/08/10 03:50:09;;;;;;;3.60;1.70;;;21.40;83.60;;;;;;5134031;27;20023;-75
2022/08/10 03:52:35;;;;;;;2.55;1.60;;;21.40;83.50;;;;;;5126064;27;20035;-76
2022/08/10 03:55:01;;;;;;;3.88;1.98;;;21.40;83.60;;;;;;5133079;27;20035;-76
2022/08/10 03:57:28;;;;;;;3.83;2.00;;;21.20;83.60;;;;;;5134898;27;20019;-76
2022/08/10 03:59:55;;;;;;;2.75;1.75;;;21.30;83.80;;;;;;5138902;27;20014;-75
2022/08/10 04:02:21;;;;;;;2.80;1.65;;;21.30;83.90;;;;;;5145711;27;20139;-76
2022/08/10 04:04:46;;;;;;;4.45;2.10;;;21.30;84.00;;;;;;5129440;27;20106;-75
2022/08/10 04:07:12;;;;;;;3.05;1.83;;;21.30;84.00;;;;;;5143335;27;20034;-75
2022/08/10 04:09:38;;;;;;;4.97;2.05;;;21.20;84.00;;;;;;5127063;27;20695;-76
2022/08/10 04:12:04;;;;;;;2.90;1.70;;;21.30;84.10;;;;;;5127112;27;20027;-75
2022/08/10 04:14:30;;;;;;;3.50;1.90;;;21.20;84.00;;;;;;5142638;27;20030;-76
2022/08/10 04:16:56;;;;;;;3.30;1.80;;;21.30;84.10;;;;;;5143113;27;20027;-76
2022/08/10 04:19:22;;;;;;;3.40;1.73;;;21.20;84.10;;;;;;5127155;27;20035;-75
2022/08/10 04:22:01;;;;;;;3.03;1.70;;;21.20;84.10;;;;;;5127002;27;20047;-75
2022/08/10 04:24:29;;;;;;;3.80;1.73;;;21.30;84.00;;;;;;5142249;27;20034;-76
2022/08/10 04:26:55;;;;;;;3.25;1.83;;;21.30;83.90;;;;;;5142761;27;20027;-73
2022/08/10 04:29:21;;;;;;;3.90;1.83;;;21.30;83.80;;;;;;5142058;27;20031;-74
2022/08/10 04:31:49;;;;;;;2.67;1.63;;;21.30;83.70;;;;;;5142227;27;20023;-74
2022/08/10 04:34:15;;;;;;;2.75;1.58;;;21.40;83.70;;;;;;5136455;27;20397;-74
2022/08/10 04:36:42;;;;;;;3.67;1.98;;;21.30;83.70;;;;;;5123505;27;20028;-74
2022/08/10 04:39:09;;;;;;;2.53;1.52;;;21.30;83.60;;;;;;5122331;27;20095;-73
2022/08/10 04:41:35;;;;;;;2.97;1.75;;;21.30;83.50;;;;;;5115375;27;20019;-75
2022/08/10 04:44:00;;;;;;;2.40;1.50;;;21.30;83.50;;;;;;5107204;27;20522;-72
2022/08/10 04:46:26;;;;;;;2.15;1.45;;;21.30;83.70;;;;;;5126671;27;20027;-72
2022/08/10 04:48:52;;;;;;;3.53;1.60;;;21.30;83.90;;;;;;5146223;27;20026;-72
2022/08/10 04:51:18;;;;;;;3.08;1.85;;;21.20;83.90;;;;;;5143026;27;20062;-74
2022/08/10 04:53:44;;;;;;;3.13;1.70;;;21.30;84.00;;;;;;5125396;27;20069;-73
2022/08/10 04:56:10;;;;;;;3.13;1.80;;;21.30;84.00;;;;;;5131746;27;20075;-74
2022/08/10 04:58:36;;;;;;;2.67;1.67;;;21.30;84.00;;;;;;5119478;28;20023;-74
2022/08/10 05:01:02;;;;;;;2.40;1.65;;;21.30;84.00;;;;;;5129363;27;20027;-74
2022/08/10 05:03:27;;;;;;;4.43;2.20;;;21.20;84.00;;;;;;5130606;27;20083;-73
2022/08/10 05:05:53;;;;;;;2.90;1.77;;;21.30;84.10;;;;;;5123689;27;20457;-74
2022/08/10 05:08:19;;;;;;;3.90;2.00;;;21.20;84.00;;;;;;5128777;27;20035;-74
2022/08/10 05:10:45;;;;;;;2.83;1.58;;;21.30;84.10;;;;;;5125992;27;20014;-73
2022/08/10 05:13:11;;;;;;;3.28;1.80;;;21.30;84.00;;;;;;5136557;27;20027;-73
2022/08/10 05:15:37;;;;;;;3.38;1.75;;;21.30;83.90;;;;;;5129661;27;20628;-75
2022/08/10 05:18:03;;;;;;;2.08;1.50;;;21.30;83.80;;;;;;5129493;27;20022;-72
2022/08/10 05:20:29;;;;;;;2.95;1.90;;;21.30;83.60;;;;;;5131943;27;20506;-73
2022/08/10 05:22:54;;;;;;;3.47;1.65;;;21.40;83.70;;;;;;5130937;27;20027;-75
2022/08/10 05:25:20;;;;;;;2.75;1.75;;;21.30;83.60;;;;;;5136089;27;20114;-72
2022/08/10 05:27:46;;;;;;;2.15;1.50;;;21.30;83.70;;;;;;5132660;27;20027;-75
2022/08/10 05:30:15;;;;;;;3.00;1.60;;;21.40;83.60;;;;;;5127079;27;20518;-75
2022/08/10 05:32:41;;;;;;;2.58;1.70;;;21.40;83.60;;;;;;5132380;27;20354;-75
2022/08/10 05:35:07;;;;;;;2.92;1.90;;;21.30;83.60;;;;;;5132213;27;20027;-75
2022/08/10 05:37:33;;;;;;;3.38;1.83;;;21.30;83.70;;;;;;5133686;27;20072;-75
2022/08/10 05:40:01;;;;;;;2.65;1.70;;;21.30;83.80;;;;;;5140241;27;20030;-74
2022/08/10 05:42:28;;;;;;;3.47;1.88;;;21.30;83.90;;;;;;5132487;27;20312;-72
2022/08/10 05:44:55;;;;;;;3.78;1.90;;;21.30;83.90;;;;;;5132344;27;20027;-74
2022/08/10 05:47:21;;;;;;;2.97;1.88;;;21.30;83.90;;;;;;5129774;27;20042;-73
2022/08/10 05:49:48;;;;;;;2.97;2.00;;;21.30;83.90;;;;;;5130160;27;20028;-74
2022/08/10 05:52:14;;;;;;;2.80;1.80;;;21.30;83.90;;;;;;5130033;27;20035;-75
2022/08/10 05:54:41;;;;;;;3.35;1.75;;;21.30;83.90;;;;;;5143672;27;20023;-73
2022/08/10 05:57:07;;;;;;;3.15;2.00;;;21.30;83.90;;;;;;5146096;27;20033;-74
2022/08/10 05:59:36;;;;;;;3.00;1.70;;;21.30;83.90;;;;;;5144282;27;20308;-75
2022/08/10 06:02:04;;;;;;;3.30;1.90;;;21.30;83.70;;;;;;5128454;27;20033;-74
2022/08/10 06:04:38;;;;;;;3.03;1.83;;;21.40;83.80;;;;;;5132193;27;20031;-74
2022/08/10 06:07:05;;;;;;;3.03;1.67;;;21.40;84.30;;;;;;5130157;27;20054;-74
2022/08/10 06:09:31;;;;;;;3.30;1.88;;;21.40;83.60;;;;;;5133011;27;20113;-72
2022/08/10 06:12:00;;;;;;;2.90;1.60;;;21.40;83.40;;;;;;5127092;27;20038;-72
2022/08/10 06:17:12;;;;;;;2.65;1.67;;;21.50;83.40;;;;;;5136069;27;20038;-73
2022/08/10 06:19:40;;;;;;;3.03;1.65;;;21.50;83.20;;;;;;5131818;27;20033;-72
2022/08/10 06:22:06;;;;;;;2.47;1.77;;;21.40;82.90;;;;;;5126611;27;20041;-75
2022/08/10 06:24:39;;;;;;;2.53;1.65;;;21.40;82.90;;;;;;5127901;27;20453;-75
2022/08/10 06:27:06;;;;;;;3.20;1.80;;;21.40;83.00;;;;;;5134450;27;20029;-73
2022/08/10 06:29:34;;;;;;;2.30;1.60;;;21.40;83.10;;;;;;5124135;27;20079;-74
2022/08/10 06:32:02;;;;;;;2.20;1.60;;;21.40;83.00;;;;;;5127243;27;20079;-73
2022/08/10 06:34:32;;;;;;;2.88;1.67;;;21.40;83.00;;;;;;5126402;27;20383;-73
2022/08/10 06:37:03;;;;;;;2.53;1.70;;;21.40;83.00;;;;;;5109874;27;20648;-73
2022/08/10 06:39:29;;;;;;;3.85;1.95;;;21.40;83.00;;;;;;5105637;28;20024;-72
2022/08/10 06:42:01;;;;;;;2.97;1.90;;;21.50;83.10;;;;;;5104895;28;20038;-77
2022/08/10 06:44:31;;;;;;;2.08;1.70;;;21.50;83.10;;;;;;5104366;28;20036;-74
2022/08/10 06:46:59;;;;;;;4.18;2.17;;;21.50;83.00;;;;;;5108239;28;20027;-76
2022/08/10 06:49:25;;;;;;;2.83;1.90;;;21.50;83.10;;;;;;5108314;28;20098;-76
2022/08/10 06:51:53;;;;;;;3.97;1.80;;;21.50;83.00;;;;;;5108056;28;20119;-77
2022/08/10 06:54:23;;;;;;;2.92;1.80;;;21.60;82.90;;;;;;5107627;28;20106;-76
2022/08/10 06:56:53;;;;;;;2.70;1.65;;;21.60;82.60;;;;;;5106794;28;20023;-76
2022/08/10 06:59:23;;;;;;;4.13;1.90;;;21.70;82.50;;;;;;5106542;28;20112;-76
2022/08/10 07:04:05;;;;;;;4.20;1.95;;;21.70;82.20;;;;;;5104810;27;20318;-78
2022/08/10 07:06:33;;;;;;;9.40;2.80;;;21.80;81.60;;;;;;5099578;28;20482;-79
2022/08/10 07:09:00;;;;;;;5.15;2.42;;;21.70;81.30;;;;;;5101553;28;20418;-76
2022/08/10 07:11:28;;;;;;;10.60;2.38;;;21.80;81.20;;;;;;5101769;28;20020;-77
2022/08/10 07:13:55;;;;;;;8.98;2.50;;;21.90;81.30;;;;;;5102351;28;20485;-76
2022/08/10 07:16:27;;;;;;;9.40;2.45;;;21.80;81.20;;;;;;5102981;28;20051;-76
2022/08/10 07:18:52;;;;;;;;;;;21.80;81.10;;;;;;5102035;28;20410;-76
2022/08/10 07:21:20;;;;;;;6.13;2.28;;;21.80;81.10;;;;;;5103692;28;19904;-76
2022/08/10 07:23:46;;;;;;;8.02;2.20;;;21.80;81.00;;;;;;5101857;28;20036;-76
2022/08/10 07:26:12;;;;;;;8.40;2.10;;;21.90;81.20;;;;;;5103514;28;20116;-77
2022/08/10 07:28:38;;;;;;;5.38;2.30;;;21.90;81.10;;;;;;5103423;28;20031;-77
2022/08/10 07:31:05;;;;;;;5.78;2.50;;;21.90;81.00;;;;;;5103523;28;20035;-77
2022/08/10 07:33:33;;;;;;;8.13;2.50;;;21.90;81.00;;;;;;5102994;28;20028;-76
2022/08/10 07:36:00;;;;;;;6.47;2.25;;;21.90;81.00;;;;;;5102243;28;20036;-76
2022/08/10 07:38:28;;;;;;;6.75;2.10;;;22.00;81.00;;;;;;5103917;28;20055;-77
2022/08/10 07:40:58;;;;;;;4.32;2.28;;;22.00;80.90;;;;;;5102367;28;20050;-76
2022/08/10 07:43:26;;;;;;;4.97;2.20;;;22.00;80.70;;;;;;5102202;28;20024;-76
2022/08/10 07:45:52;;;;;;;5.53;2.17;;;22.10;80.60;;;;;;5103473;28;20024;-75
2022/08/10 07:48:31;;;;;;;5.00;2.33;;;22.20;80.40;;;;;;5103856;28;20065;-76
2022/08/10 07:51:00;;;;;;;5.80;2.42;;;22.20;80.30;;;;;;5103568;28;20509;-76
2022/08/10 07:53:30;;;;;;;8.70;2.85;;;22.20;80.20;;;;;;5101673;28;20070;-76
2022/08/10 07:55:58;;;;;;;4.63;2.50;;;22.20;80.20;;;;;;5103156;28;20035;-76
2022/08/10 07:58:28;;;;;;;5.45;2.65;;;22.20;80.30;;;;;;5102057;28;20513;-75
2022/08/10 08:00:56;;;;;;;5.72;2.40;;;22.30;80.40;;;;;;5103307;28;20032;-76
2022/08/10 08:03:24;;;;;;;6.47;2.42;;;22.20;80.20;;;;;;5102788;28;20089;-75
2022/08/10 08:05:50;;;;;;;5.25;2.60;;;22.20;80.20;;;;;;5101597;28;20032;-76
2022/08/10 08:08:17;;;;;;;6.53;2.90;;;22.20;80.30;;;;;;5103525;28;20024;-76
2022/08/10 08:10:45;;;;;;;5.00;2.72;;;22.30;80.30;;;;;;5103397;28;20023;-76
2022/08/10 08:13:12;;;;;;;5.38;2.67;;;22.30;80.40;;;;;;5100344;28;20405;-77
2022/08/10 08:15:39;;;;;;;5.53;2.70;;;22.30;80.30;;;;;;5075976;28;20310;-77
2022/08/10 08:18:06;;;;;;;6.20;2.78;;;22.30;80.30;;;;;;5069682;28;20039;-77
2022/08/10 08:20:32;;;;;;;6.07;2.83;;;22.30;80.40;;;;;;5068138;28;20849;-77
2022/08/10 08:22:58;;;;;;;5.55;2.78;;;22.30;80.40;;;;;;5066143;28;20078;-78
2022/08/10 08:25:24;;;;;;;5.35;2.92;;;22.30;80.40;;;;;;5065944;28;20024;-76
2022/08/10 08:27:54;;;;;;;5.05;2.70;;;22.40;80.40;;;;;;5069227;28;20031;-76
2022/08/10 08:30:22;;;;;;;5.80;2.70;;;22.40;80.30;;;;;;5067471;28;20025;-77
2022/08/10 08:32:48;;;;;;;4.97;2.75;;;22.40;80.20;;;;;;5066776;28;20114;-74
2022/08/10 08:35:17;;;;;;;5.35;2.75;;;22.50;80.00;;;;;;5068303;28;20020;-76
2022/08/10 08:37:45;;;;;;;5.82;2.42;;;22.50;79.80;;;;;;5068311;28;20036;-77
2022/08/10 08:40:15;;;;;;;5.97;3.00;;;22.50;79.60;;;;;;5066965;28;20396;-75
2022/08/10 08:42:59;;;;;;;6.05;2.67;;;22.60;79.60;;;;;;5067867;28;20402;-75
2022/08/10 08:45:50;;;;;;;5.07;2.60;;;22.60;79.40;;;;;;5066884;28;20403;-76
2022/08/10 08:48:18;;;;;;;5.15;2.53;;;22.60;79.60;;;;;;5068138;28;20025;-76
2022/08/10 08:51:16;;;;;;;4.63;2.50;;;22.60;79.50;;;;;;5067754;28;20468;-77
2022/08/10 08:53:45;;;;;;;5.13;2.50;;;22.50;79.50;;;;;;5068551;28;20056;-76
2022/08/10 08:56:33;;;;;;;5.45;2.75;;;22.50;79.80;;;;;;5069482;28;20099;-77
2022/08/10 08:59:10;;;;;;;5.65;2.40;;;22.60;79.80;;;;;;5067895;28;20043;-77
2022/08/10 09:02:13;;;;;;;4.15;2.47;;;22.60;79.90;;;;;;5068678;28;20056;-77
2022/08/10 09:05:05;;;;;;;5.13;2.47;;;22.60;79.90;;;;;;5069391;28;20040;-75
2022/08/10 09:07:48;;;;;;;4.28;2.70;;;22.60;79.90;;;;;;5067442;28;20054;-77
2022/08/10 09:10:38;;;;;;;6.05;2.80;;;22.60;79.90;;;;;;5081966;28;20470;-77
2022/08/10 09:13:25;;;;;;;5.25;2.60;;;22.60;79.90;;;;;;5104344;28;20270;-75
2022/08/10 09:16:15;;;;;;;4.93;2.70;;;22.70;79.90;;;;;;5086573;28;20031;-76
2022/08/10 09:19:11;;;;;;;4.32;2.65;;;22.70;79.80;;;;;;5085582;28;20047;-75
2022/08/10 09:21:53;;;;;;;5.32;2.60;;;22.70;79.60;;;;;;5086661;28;20111;-77
2022/08/10 09:24:53;;;;;;;4.38;2.58;;;22.70;79.40;;;;;;5105757;28;20106;-76
2022/08/10 09:27:21;;;;;;;5.80;2.67;;;22.80;79.20;;;;;;5053038;28;20044;-78
2022/08/10 09:29:56;;;;;;;4.72;2.50;;;22.90;79.10;;;;;;5066387;28;20064;-76
2022/08/10 09:32:34;;;;;;;5.20;2.58;;;22.90;79.00;;;;;;5065390;28;20263;-77
2022/08/10 09:35:28;;;;;;;4.88;2.67;;;22.80;79.00;;;;;;5064897;28;20092;-76
2022/08/10 09:38:05;;;;;;;5.40;2.80;;;22.80;79.10;;;;;;5064701;28;20032;-76
2022/08/10 09:40:45;;;;;;;4.88;2.63;;;22.80;79.20;;;;;;5066678;28;20111;-75
2022/08/10 09:43:17;;;;;;;5.60;2.75;;;22.80;79.20;;;;;;5066355;28;20028;-77
2022/08/10 09:46:08;;;;;;;4.43;2.47;;;22.80;79.30;;;;;;5065319;28;20032;-75
2022/08/10 09:48:49;;;;;;;4.57;2.53;;;22.80;79.40;;;;;;5070300;28;20055;-74
2022/08/10 09:51:52;;;;;;;4.13;2.50;;;22.80;79.40;;;;;;5067636;28;20024;-76
2022/08/10 09:54:42;;;;;;;4.60;2.58;;;22.80;79.30;;;;;;5073418;28;20028;-76
2022/08/10 09:57:28;;;;;;;4.80;2.60;;;22.80;79.30;;;;;;5086442;28;20528;-76
2022/08/10 10:00:11;;;;;;;4.10;2.42;;;22.80;79.30;;;;;;5085202;28;20038;-76
2022/08/10 10:02:47;;;;;;;4.15;2.47;;;22.80;79.40;;;;;;5085224;28;20024;-77
2022/08/10 10:05:36;;;;;;;4.53;2.30;;;22.80;79.30;;;;;;5085544;28;20019;-77
2022/08/10 10:08:06;;;;;;;4.20;2.50;;;22.80;79.30;;;;;;5066506;28;20012;-76
2022/08/10 10:10:39;;;;;;;4.53;2.55;;;22.90;79.30;;;;;;5064917;28;20303;-75
2022/08/10 10:13:23;;;;;;;4.05;2.35;;;22.90;79.20;;;;;;5065648;28;20133;-76
2022/08/10 10:16:02;;;;;;;4.05;2.53;;;22.90;79.10;;;;;;5081799;28;20031;-76
2022/08/10 10:19:08;;;;;;;3.50;2.20;;;23.00;79.00;;;;;;5065955;28;20036;-77
2022/08/10 10:21:57;;;;;;;3.72;2.25;;;23.00;78.90;;;;;;5054677;28;20033;-77
2022/08/10 10:24:51;;;;;;;4.00;2.28;;;23.00;78.70;;;;;;5065749;28;20077;-79
2022/08/10 10:27:46;;;;;;;4.13;2.30;;;23.00;78.80;;;;;;5071308;28;20024;-76
2022/08/10 10:30:13;;;;;;;4.07;2.33;;;22.90;78.90;;;;;;5070862;28;20025;-76
2022/08/10 10:32:39;;;;;;;3.50;2.08;;;22.90;79.00;;;;;;5071672;28;20398;-75
2022/08/10 10:35:19;;;;;;;4.90;2.50;;;22.90;79.00;;;;;;5072359;28;20108;-76
2022/08/10 10:37:47;;;;;;;4.50;2.40;;;22.90;79.10;;;;;;5071429;28;20108;-76
2022/08/10 10:40:14;;;;;;;4.45;2.30;;;22.90;79.10;;;;;;5071507;28;20032;-76
2022/08/10 10:43:09;;;;;;;3.45;2.15;;;22.90;79.00;;;;;;5071121;28;20024;-77
2022/08/10 10:46:00;;;;;;;4.20;2.42;;;22.90;79.10;;;;;;5071687;28;20024;-76
2022/08/10 10:48:42;;;;;;;4.65;2.28;;;22.90;79.10;;;;;;5071510;28;20021;-77
2022/08/10 10:51:33;;;;;;;3.65;2.00;;;22.90;79.10;;;;;;5071504;28;20025;-76
2022/08/10 10:54:23;;;;;;;3.88;2.45;;;23.00;79.20;;;;;;5070869;28;20108;-76
2022/08/10 10:57:37;;;;;;;3.45;2.10;;;22.90;79.10;;;;;;5071333;28;20111;-76
2022/08/10 11:00:08;;;;;;;3.40;2.00;;;22.90;79.10;;;;;;5068964;28;20495;-76
2022/08/10 11:02:49;;;;;;;4.13;2.17;;;23.00;79.00;;;;;;5071187;28;20154;-76
2022/08/10 11:05:36;;;;;;;2.50;1.70;;;23.00;78.80;;;;;;5071394;28;20075;-76
2022/08/10 11:08:24;;;;;;;3.60;2.13;;;23.00;78.70;;;;;;5069987;28;20024;-78
2022/08/10 11:11:22;;;;;;;2.75;1.85;;;23.10;78.70;;;;;;5071160;28;20035;-76
2022/08/10 11:14:07;;;;;;;3.00;1.92;;;23.10;78.60;;;;;;5055770;28;20098;-77
2022/08/10 11:16:47;;;;;;;3.85;2.00;;;23.00;78.60;;;;;;5087001;28;20024;-76
2022/08/10 11:19:16;;;;;;;3.45;1.90;;;23.00;78.70;;;;;;5070014;28;20031;-76
2022/08/10 11:22:04;;;;;;;3.92;2.00;;;23.00;78.90;;;;;;5069985;28;20130;-76
2022/08/10 11:24:53;;;;;;;4.25;2.00;;;22.90;79.00;;;;;;5070768;28;20163;-76
2022/08/10 11:27:37;;;;;;;4.50;2.17;;;22.90;79.10;;;;;;5071191;28;20074;-76
2022/08/10 11:30:05;;;;;;;3.50;2.00;;;22.90;79.20;;;;;;5070951;28;20368;-76
2022/08/10 11:32:53;;;;;;;4.13;2.17;;;22.90;79.20;;;;;;5070844;28;20086;-76
2022/08/10 11:35:57;;;;;;;3.20;1.98;;;22.90;79.20;;;;;;5070856;28;20514;-75
2022/08/10 11:38:44;;;;;;;3.17;1.92;;;22.90;79.20;;;;;;5070147;28;20471;-76
2022/08/10 11:41:45;;;;;;;3.28;2.00;;;22.90;79.20;;;;;;5070879;28;20483;-77
2022/08/10 11:44:24;;;;;;;3.22;2.03;;;22.90;79.20;;;;;;5064711;28;20514;-77
2022/08/10 11:47:03;;;;;;;3.88;2.00;;;22.90;79.30;;;;;;5071019;28;20036;-76
2022/08/10 11:49:45;;;;;;;3.20;1.67;;;22.90;79.30;;;;;;5071783;28;20024;-76
2022/08/10 11:52:44;;;;;;;2.88;1.88;;;22.90;79.20;;;;;;5074718;28;20024;-76
2022/08/10 11:55:18;;;;;;;3.33;1.98;;;22.90;79.10;;;;;;5074432;28;20100;-76
2022/08/10 11:57:46;;;;;;;3.03;1.95;;;22.90;78.90;;;;;;5074660;28;20025;-76
2022/08/10 12:00:12;;;;;;;2.97;1.80;;;22.90;78.90;;;;;;5074347;28;20486;-76
2022/08/10 12:02:49;;;;;;;2.83;1.92;;;22.90;78.70;;;;;;5089844;28;20506;-76
2022/08/10 12:05:19;;;;;;;3.15;1.80;;;22.90;78.90;;;;;;5089990;28;20118;-76
2022/08/10 12:07:49;;;;;;;3.47;2.00;;;22.90;79.00;;;;;;5074478;28;20040;-76
2022/08/10 12:10:14;;;;;;;3.95;1.80;;;22.90;79.20;;;;;;5073014;28;20020;-76
2022/08/10 12:13:11;;;;;;;3.25;1.92;;;22.80;79.20;;;;;;5074392;28;20025;-76
2022/08/10 12:16:07;;;;;;;3.55;1.95;;;22.80;79.40;;;;;;5089403;28;20032;-76
2022/08/10 12:18:44;;;;;;;3.05;1.90;;;22.80;79.80;;;;;;5087979;28;20499;-76
2022/08/10 12:21:24;;;;;;;2.50;1.75;;;22.80;79.70;;;;;;5074121;28;20056;-75
2022/08/10 12:23:55;;;;;;;2.97;1.73;;;22.80;79.70;;;;;;5073659;28;20037;-76
2022/08/10 12:26:48;;;;;;;3.47;2.10;;;22.70;79.70;;;;;;5073853;28;20024;-76
2022/08/10 12:29:25;;;;;;;2.47;1.80;;;22.70;79.70;;;;;;5074163;28;20471;-76
2022/08/10 12:32:21;;;;;;;3.70;1.77;;;22.70;79.70;;;;;;5072721;28;20475;-76
2022/08/10 12:34:52;;;;;;;3.40;1.75;;;22.70;79.80;;;;;;5071028;28;20036;-76
2022/08/10 12:37:45;;;;;;;2.92;1.95;;;22.70;79.80;;;;;;5089528;28;20024;-76
2022/08/10 12:40:25;;;;;;;3.20;1.70;;;22.70;79.70;;;;;;5072428;28;20032;-76
2022/08/10 12:43:00;;;;;;;3.15;1.80;;;22.80;79.60;;;;;;5071822;28;20033;-75
2022/08/10 12:45:37;;;;;;;3.17;1.90;;;22.70;79.50;;;;;;5073123;28;20021;-76
2022/08/10 12:48:13;;;;;;;3.42;2.00;;;22.80;79.40;;;;;;5072660;28;20012;-76
2022/08/10 12:50:48;;;;;;;2.50;1.80;;;22.70;79.50;;;;;;5072367;28;20031;-77
2022/08/10 12:53:33;;;;;;;3.08;1.88;;;22.70;79.60;;;;;;5073406;28;20033;-76
2022/08/10 12:56:00;;;;;;;4.00;2.15;;;22.70;79.60;;;;;;5073380;28;20556;-76
2022/08/10 12:58:28;;;;;;;2.42;1.80;;;22.70;79.70;;;;;;5089126;28;20028;-76
2022/08/10 13:00:54;;;;;;;3.30;1.80;;;22.60;79.80;;;;;;5073179;28;20031;-76
2022/08/10 13:03:22;;;;;;;2.92;1.85;;;22.60;79.90;;;;;;5072820;28;20570;-76
2022/08/10 13:05:50;;;;;;;2.47;1.73;;;22.60;80.00;;;;;;5088634;28;20419;-76
2022/08/10 13:11:07;;;;;;;2.80;1.88;;;22.60;80.20;;;;;;5073257;28;20028;-76
2022/08/10 13:13:37;;;;;;;2.75;1.80;;;22.50;80.20;;;;;;5072709;28;20036;-76
2022/08/10 13:16:04;;;;;;;2.72;1.80;;;22.50;80.30;;;;;;5072889;28;20443;-76
2022/08/10 13:18:37;;;;;;;3.25;1.92;;;22.50;80.40;;;;;;5073010;28;20024;-76
2022/08/10 13:21:09;;;;;;;3.28;1.85;;;22.50;80.50;;;;;;5073100;28;20035;-77
2022/08/10 13:23:41;;;;;;;3.30;1.80;;;22.50;80.50;;;;;;5071268;28;20032;-76
2022/08/10 13:26:13;;;;;;;2.92;1.80;;;22.50;80.40;;;;;;5071693;28;20481;-76
2022/08/10 13:28:46;;;;;;;2.83;1.83;;;22.50;80.30;;;;;;5073002;28;20028;-76